Ramenskoe, Russia
Current Conditions -  °F | °C
As of 1:00 AM on Wednesday 22 Oct 2014 (Local Time) from UUDD Reporting Station
Broken Clouds Broken Clouds  
Wind Chill: 14°   Ceiling: 2000
Heat Index: 27°   Visibility: 6mi
Dew Point: 19°   Wind: 18mph
Humidity: 74%   Direction: 340°NNW
Pressure: 29.62"   Gusts: 29mph
Location:  55.58°N, 38.19°E
Report Text: UUDD 212200Z 34008G13MPS 9999 BKN020 M03/M07 Q1003 WS RWY32R32150095 82290095 NOSIG
Loading
Personal Weather Stations






























Interactive Weather Map
Tropical Storm Tracking
New forecast layout! Learn more

10-Day Weather Forecast

Advertisements
Track Severe Weather on mobile